sensor_id;sensor_type;location;lat;lon;timestamp;pressure;altitude;pressure_sealevel;temperature;humidity
53647;BME280;39550;52.230;5.194;2022-09-09T00:03:54;100602.72;;;18.82;66.02
53647;BME280;39550;52.230;5.194;2022-09-09T00:06:30;100594.06;;;18.80;65.99
53647;BME280;39550;52.230;5.194;2022-09-09T00:09:12;100594.06;;;18.80;66.12
53647;BME280;39550;52.230;5.194;2022-09-09T00:16:55;100595.91;;;18.78;66.15
53647;BME280;39550;52.230;5.194;2022-09-09T00:19:41;100590.66;;;18.78;66.15
53647;BME280;39550;52.230;5.194;2022-09-09T00:22:19;100592.47;;;18.76;66.31
53647;BME280;39550;52.230;5.194;2022-09-09T00:27:31;100593.34;;;18.76;66.06
53647;BME280;39550;52.230;5.194;2022-09-09T00:30:20;100591.63;;;18.75;65.97
53647;BME280;39550;52.230;5.194;2022-09-09T00:32:49;100587.44;;;18.69;65.72
53647;BME280;39550;52.230;5.194;2022-09-09T00:37:56;100586.44;;;18.74;66.13
53647;BME280;39550;52.230;5.194;2022-09-09T00:40:35;100578.69;;;18.70;66.01
53647;BME280;39550;52.230;5.194;2022-09-09T00:46:04;100584.81;;;18.69;66.18
53647;BME280;39550;52.230;5.194;2022-09-09T00:51:15;100589.22;;;18.67;66.35
53647;BME280;39550;52.230;5.194;2022-09-09T00:54:05;100595.38;;;18.66;66.23
53647;BME280;39550;52.230;5.194;2022-09-09T00:56:37;100581.69;;;18.58;66.59
53647;BME280;39550;52.230;5.194;2022-09-09T01:01:35;100588.53;;;18.61;65.97
53647;BME280;39550;52.230;5.194;2022-09-09T01:04:02;100594.59;;;18.63;66.45
53647;BME280;39550;52.230;5.194;2022-09-09T01:06:35;100595.53;;;18.60;66.23
53647;BME280;39550;52.230;5.194;2022-09-09T01:14:20;100591.22;;;18.59;66.13
53647;BME280;39550;52.230;5.194;2022-09-09T01:16:50;100585.97;;;18.59;66.36
53647;BME280;39550;52.230;5.194;2022-09-09T01:19:22;100589.53;;;18.58;66.72
53647;BME280;39550;52.230;5.194;2022-09-09T01:22:13;100592.13;;;18.58;66.45
53647;BME280;39550;52.230;5.194;2022-09-09T01:27:27;100587.81;;;18.57;66.51
53647;BME280;39550;52.230;5.194;2022-09-09T01:29:52;100587.81;;;18.57;66.08
53647;BME280;39550;52.230;5.194;2022-09-09T01:38:09;100577.53;;;18.51;66.51
53647;BME280;39550;52.230;5.194;2022-09-09T01:40:35;100574.03;;;18.52;66.03
53647;BME280;39550;52.230;5.194;2022-09-09T01:43:01;100569.66;;;18.52;65.97
53647;BME280;39550;52.230;5.194;2022-09-09T01:45:27;100568.91;;;18.49;66.31
53647;BME280;39550;52.230;5.194;2022-09-09T01:47:53;100562.81;;;18.48;66.27
53647;BME280;39550;52.230;5.194;2022-09-09T01:50:20;100568.91;;;18.49;66.24
53647;BME280;39550;52.230;5.194;2022-09-09T01:52:49;100568.03;;;18.48;66.11
53647;BME280;39550;52.230;5.194;2022-09-09T01:55:16;100553.34;;;18.46;65.91
53647;BME280;39550;52.230;5.194;2022-09-09T01:58:13;100556.84;;;18.45;66.30
53647;BME280;39550;52.230;5.194;2022-09-09T02:00:49;100561.22;;;18.44;66.10
53647;BME280;39550;52.230;5.194;2022-09-09T02:03:21;100551.63;;;18.45;66.46
53647;BME280;39550;52.230;5.194;2022-09-09T02:08:24;100550.81;;;18.43;66.10
53647;BME280;39550;52.230;5.194;2022-09-09T02:11:17;100554.34;;;18.42;66.57
53647;BME280;39550;52.230;5.194;2022-09-09T02:13:44;100556.94;;;18.42;66.10
53647;BME280;39550;52.230;5.194;2022-09-09T02:19:19;100560.44;;;18.41;66.15
53647;BME280;39550;52.230;5.194;2022-09-09T02:21:52;100548.38;;;18.36;66.19
53647;BME280;39550;52.230;5.194;2022-09-09T02:24:19;100548.28;;;18.40;66.24
53647;BME280;39550;52.230;5.194;2022-09-09T02:26:46;100541.47;;;18.35;66.06
53647;BME280;39550;52.230;5.194;2022-09-09T02:29:22;100548.38;;;18.36;65.82
53647;BME280;39550;52.230;5.194;2022-09-09T02:31:49;100541.56;;;18.32;65.82
53647;BME280;39550;52.230;5.194;2022-09-09T02:34:17;100550.16;;;18.34;66.20
53647;BME280;39550;52.230;5.194;2022-09-09T02:36:44;100544.97;;;18.34;66.13
53647;BME280;39550;52.230;5.194;2022-09-09T02:39:11;100545.94;;;18.32;66.33
53647;BME280;39550;52.230;5.194;2022-09-09T02:41:39;100542.53;;;18.28;66.40
53647;BME280;39550;52.230;5.194;2022-09-09T02:44:09;100552.81;;;18.33;66.38
53647;BME280;39550;52.230;5.194;2022-09-09T02:49:39;100552.03;;;18.31;66.15
53647;BME280;39550;52.230;5.194;2022-09-09T02:52:14;100552.09;;;18.29;66.31
53647;BME280;39550;52.230;5.194;2022-09-09T02:54:43;100546.91;;;18.28;66.21
53647;BME280;39550;52.230;5.194;2022-09-09T02:57:19;100546.94;;;18.26;66.20
53647;BME280;39550;52.230;5.194;2022-09-09T02:59:48;100545.25;;;18.25;66.52
53647;BME280;39550;52.230;5.194;2022-09-09T03:02:14;100546.09;;;18.26;66.06
53647;BME280;39550;52.230;5.194;2022-09-09T03:04:40;100553.13;;;18.24;66.28
53647;BME280;39550;52.230;5.194;2022-09-09T03:07:08;100548.75;;;18.24;66.12
53647;BME280;39550;52.230;5.194;2022-09-09T03:09:33;100544.41;;;18.23;66.38
53647;BME280;39550;52.230;5.194;2022-09-09T03:11:58;100541.81;;;18.23;66.26
53647;BME280;39550;52.230;5.194;2022-09-09T03:14:24;100537.50;;;18.22;66.13
53647;BME280;39550;52.230;5.194;2022-09-09T03:16:53;100526.34;;;18.17;66.19
53647;BME280;39550;52.230;5.194;2022-09-09T03:19:20;100527.97;;;18.21;65.88
53647;BME280;39550;52.230;5.194;2022-09-09T03:21:46;100527.97;;;18.21;66.34
53647;BME280;39550;52.230;5.194;2022-09-09T03:24:12;100536.69;;;18.20;66.45
53647;BME280;39550;52.230;5.194;2022-09-09T03:26:39;100532.47;;;18.16;66.03
53647;BME280;39550;52.230;5.194;2022-09-09T03:29:06;100533.28;;;18.18;66.02
53647;BME280;39550;52.230;5.194;2022-09-09T03:31:35;100529.81;;;18.17;66.05
53647;BME280;39550;52.230;5.194;2022-09-09T03:34:01;100535.03;;;18.17;66.27
53647;BME280;39550;52.230;5.194;2022-09-09T03:36:27;100544.59;;;18.17;66.01
53647;BME280;39550;52.230;5.194;2022-09-09T03:38:53;100535.03;;;18.17;66.27
53647;BME280;39550;52.230;5.194;2022-09-09T03:41:22;100532.47;;;18.16;66.02
53647;BME280;39550;52.230;5.194;2022-09-09T03:43:50;100541.22;;;18.13;66.18
53647;BME280;39550;52.230;5.194;2022-09-09T03:46:16;100534.34;;;18.11;66.19
53647;BME280;39550;52.230;5.194;2022-09-09T03:48:41;100546.47;;;18.12;66.39
53647;BME280;39550;52.230;5.194;2022-09-09T03:51:06;100535.25;;;18.10;66.52
53647;BME280;39550;52.230;5.194;2022-09-09T03:53:32;100530.03;;;18.10;66.20
53647;BME280;39550;52.230;5.194;2022-09-09T03:55:58;100529.25;;;18.06;66.47
53647;BME280;39550;52.230;5.194;2022-09-09T03:58:25;100527.44;;;18.10;66.59
53647;BME280;39550;52.230;5.194;2022-09-09T04:01:00;100529.16;;;18.09;66.27
53647;BME280;39550;52.230;5.194;2022-09-09T04:03:26;100536.16;;;18.09;66.24
53647;BME280;39550;52.230;5.194;2022-09-09T04:05:52;100543.13;;;18.07;66.24
53647;BME280;39550;52.230;5.194;2022-09-09T04:08:18;100542.25;;;18.08;66.15
53647;BME280;39550;52.230;5.194;2022-09-09T04:10:48;100531.91;;;18.04;66.28
53647;BME280;39550;52.230;5.194;2022-09-09T04:13:15;100532.81;;;18.03;66.15
53647;BME280;39550;52.230;5.194;2022-09-09T04:15:41;100531.09;;;18.02;66.31
53647;BME280;39550;52.230;5.194;2022-09-09T04:18:07;100526.78;;;18.01;66.01
53647;BME280;39550;52.230;5.194;2022-09-09T04:20:33;100524.19;;;18.01;66.07
53647;BME280;39550;52.230;5.194;2022-09-09T04:22:58;100525.06;;;18.00;66.41
53647;BME280;39550;52.230;5.194;2022-09-09T04:25:24;100520.75;;;17.99;66.38
53647;BME280;39550;52.230;5.194;2022-09-09T04:27:58;100517.25;;;18.00;65.99
53647;BME280;39550;52.230;5.194;2022-09-09T04:30:24;100523.34;;;17.99;66.35
53647;BME280;39550;52.230;5.194;2022-09-09T04:32:50;100509.53;;;17.97;66.34
53647;BME280;39550;52.230;5.194;2022-09-09T04:35:16;100509.53;;;17.97;66.25
53647;BME280;39550;52.230;5.194;2022-09-09T04:37:41;100502.59;;;17.96;66.43
53647;BME280;39550;52.230;5.194;2022-09-09T04:40:07;100506.09;;;17.95;66.18
53647;BME280;39550;52.230;5.194;2022-09-09T04:42:38;100516.53;;;17.95;66.10
53647;BME280;39550;52.230;5.194;2022-09-09T04:45:07;100503.53;;;17.94;66.51
53647;BME280;39550;52.230;5.194;2022-09-09T04:47:33;100513.06;;;17.95;65.86
53647;BME280;39550;52.230;5.194;2022-09-09T04:50:00;100500.94;;;17.94;66.14
53647;BME280;39550;52.230;5.194;2022-09-09T04:52:25;100505.28;;;17.93;66.35
53647;BME280;39550;52.230;5.194;2022-09-09T04:54:51;100506.19;;;17.91;66.11
53647;BME280;39550;52.230;5.194;2022-09-09T04:57:16;100497.50;;;17.90;66.41
53647;BME280;39550;52.230;5.194;2022-09-09T04:59:41;100497.50;;;17.90;66.04
53647;BME280;39550;52.230;5.194;2022-09-09T05:02:06;100495.81;;;17.89;66.15
53647;BME280;39550;52.230;5.194;2022-09-09T05:04:32;100498.44;;;17.89;66.41
53647;BME280;39550;52.230;5.194;2022-09-09T05:06:58;100506.25;;;17.89;66.49
53647;BME280;39550;52.230;5.194;2022-09-09T05:09:24;100501.09;;;17.87;65.97
53647;BME280;39550;52.230;5.194;2022-09-09T05:11:49;100502.81;;;17.87;65.98
53647;BME280;39550;52.230;5.194;2022-09-09T05:14:15;100500.25;;;17.85;66.51
53647;BME280;39550;52.230;5.194;2022-09-09T05:16:41;100500.22;;;17.87;66.12
53647;BME280;39550;52.230;5.194;2022-09-09T05:19:07;100491.59;;;17.85;66.32
53647;BME280;39550;52.230;5.194;2022-09-09T05:21:33;100497.69;;;17.84;66.07
53647;BME280;39550;52.230;5.194;2022-09-09T05:23:59;100495.13;;;17.82;66.03
53647;BME280;39550;52.230;5.194;2022-09-09T05:26:25;100493.41;;;17.81;66.57
53647;BME280;39550;52.230;5.194;2022-09-09T05:28:51;100495.97;;;17.83;66.33
53647;BME280;39550;52.230;5.194;2022-09-09T05:31:17;100494.25;;;17.82;65.92
53647;BME280;39550;52.230;5.194;2022-09-09T05:33:44;100504.69;;;17.82;66.18
53647;BME280;39550;52.230;5.194;2022-09-09T05:36:15;100496.88;;;17.82;66.52
53647;BME280;39550;52.230;5.194;2022-09-09T05:38:42;100503.84;;;17.81;66.41
53647;BME280;39550;52.230;5.194;2022-09-09T05:41:08;100503.88;;;17.80;66.36
53647;BME280;39550;52.230;5.194;2022-09-09T05:43:34;100496.06;;;17.80;66.00
53647;BME280;39550;52.230;5.194;2022-09-09T05:46:11;100478.72;;;17.79;66.27
53647;BME280;39550;52.230;5.194;2022-09-09T05:48:39;100477.03;;;17.78;66.39
53647;BME280;39550;52.230;5.194;2022-09-09T05:51:06;100477.03;;;17.78;66.54
53647;BME280;39550;52.230;5.194;2022-09-09T05:53:33;100488.34;;;17.77;66.18
53647;BME280;39550;52.230;5.194;2022-09-09T05:58:30;100495.28;;;17.76;66.34
53647;BME280;39550;52.230;5.194;2022-09-09T06:01:07;100501.38;;;17.77;66.41
53647;BME280;39550;52.230;5.194;2022-09-09T06:03:34;100505.06;;;17.69;66.62
53647;BME280;39550;52.230;5.194;2022-09-09T06:06:02;100499.84;;;17.68;66.48
53647;BME280;39550;52.230;5.194;2022-09-09T06:08:30;100493.75;;;17.69;66.05
53647;BME280;39550;52.230;5.194;2022-09-09T06:11:01;100501.63;;;17.67;65.88
53647;BME280;39550;52.230;5.194;2022-09-09T06:13:27;100498.06;;;17.70;66.24
53647;BME280;39550;52.230;5.194;2022-09-09T06:15:53;100491.88;;;17.74;66.33
53647;BME280;39550;52.230;5.194;2022-09-09T06:18:18;100491.06;;;17.72;66.36
53647;BME280;39550;52.230;5.194;2022-09-09T06:20:58;100491.09;;;17.70;65.92
53647;BME280;39550;52.230;5.194;2022-09-09T06:23:25;100491.09;;;17.70;66.14
53647;BME280;39550;52.230;5.194;2022-09-09T06:25:50;100491.19;;;17.67;66.22
53647;BME280;39550;52.230;5.194;2022-09-09T06:28:17;100494.63;;;17.69;66.43
53647;BME280;39550;52.230;5.194;2022-09-09T06:30:42;100493.66;;;17.74;66.49
53647;BME280;39550;52.230;5.194;2022-09-09T06:33:08;100494.53;;;17.73;65.96
53647;BME280;39550;52.230;5.194;2022-09-09T06:35:34;100494.44;;;17.76;65.80
53647;BME280;39550;52.230;5.194;2022-09-09T06:37:59;100491.84;;;17.76;66.01
53647;BME280;39550;52.230;5.194;2022-09-09T06:40:25;100487.59;;;17.72;65.97
53647;BME280;39550;52.230;5.194;2022-09-09T06:42:50;100494.63;;;17.69;66.41
53647;BME280;39550;52.230;5.194;2022-09-09T06:45:16;100483.38;;;17.67;66.35
53647;BME280;39550;52.230;5.194;2022-09-09T06:47:42;100485.97;;;17.67;66.09
53647;BME280;39550;52.230;5.194;2022-09-09T06:50:08;100487.69;;;17.68;66.48
53647;BME280;39550;52.230;5.194;2022-09-09T06:52:33;100481.59;;;17.69;66.38
53647;BME280;39550;52.230;5.194;2022-09-09T06:54:58;100486.81;;;17.68;65.92
53647;BME280;39550;52.230;5.194;2022-09-09T06:57:24;100492.91;;;17.68;66.12
53647;BME280;39550;52.230;5.194;2022-09-09T06:59:49;100496.41;;;17.67;66.42
53647;BME280;39550;52.230;5.194;2022-09-09T07:02:15;100492.94;;;17.67;66.53
53647;BME280;39550;52.230;5.194;2022-09-09T07:04:40;100501.56;;;17.69;66.41
53647;BME280;39550;52.230;5.194;2022-09-09T07:07:06;100492.13;;;17.65;66.20
53647;BME280;39550;52.230;5.194;2022-09-09T07:09:33;100501.53;;;17.70;66.65
53647;BME280;39550;52.230;5.194;2022-09-09T07:11:58;100499.66;;;17.76;66.20
53647;BME280;39550;52.230;5.194;2022-09-09T07:14:24;100495.13;;;17.82;65.71
53647;BME280;39550;52.230;5.194;2022-09-09T07:16:49;100495.81;;;17.89;65.78
53647;BME280;39550;52.230;5.194;2022-09-09T07:19:15;100499.28;;;17.90;65.88
53647;BME280;39550;52.230;5.194;2022-09-09T07:21:41;100485.41;;;17.89;65.51
53647;BME280;39550;52.230;5.194;2022-09-09T07:24:08;100490.66;;;17.86;65.83
53647;BME280;39550;52.230;5.194;2022-09-09T07:26:36;100489.78;;;17.87;66.08
53647;BME280;39550;52.230;5.194;2022-09-09T07:29:01;100485.47;;;17.86;66.11
53647;BME280;39550;52.230;5.194;2022-09-09T07:31:34;100495.88;;;17.86;65.91
53647;BME280;39550;52.230;5.194;2022-09-09T07:34:02;100501.09;;;17.86;65.95
53647;BME280;39550;52.230;5.194;2022-09-09T07:36:29;100496.72;;;17.88;65.78
53647;BME280;39550;52.230;5.194;2022-09-09T07:38:57;100490.66;;;17.86;66.05
53647;BME280;39550;52.230;5.194;2022-09-09T07:44:07;100487.22;;;17.85;65.80
53647;BME280;39550;52.230;5.194;2022-09-09T07:46:34;100496.88;;;17.82;66.17
53647;BME280;39550;52.230;5.194;2022-09-09T07:49:00;100498.72;;;17.78;66.21
53647;BME280;39550;52.230;5.194;2022-09-09T07:51:34;100494.41;;;17.77;66.45
53647;BME280;39550;52.230;5.194;2022-09-09T07:54:02;100495.13;;;17.82;66.14
53647;BME280;39550;52.230;5.194;2022-09-09T07:56:28;100492.38;;;17.87;65.63
53647;BME280;39550;52.230;5.194;2022-09-09T07:58:55;100487.06;;;17.90;65.36
53647;BME280;39550;52.230;5.194;2022-09-09T08:01:22;100496.66;;;17.91;65.72
53647;BME280;39550;52.230;5.194;2022-09-09T08:06:15;100489.72;;;17.88;65.60
53647;BME280;39550;52.230;5.194;2022-09-09T08:08:40;100492.47;;;17.84;65.56
53647;BME280;39550;52.230;5.194;2022-09-09T08:11:13;100499.47;;;17.82;66.04
53647;BME280;39550;52.230;5.194;2022-09-09T08:13:40;100499.56;;;17.79;66.54
53647;BME280;39550;52.230;5.194;2022-09-09T08:16:13;100497.88;;;17.78;65.96
53647;BME280;39550;52.230;5.194;2022-09-09T08:18:39;100493.50;;;17.78;66.51
53647;BME280;39550;52.230;5.194;2022-09-09T08:21:15;100490.94;;;17.77;66.34
53647;BME280;39550;52.230;5.194;2022-09-09T08:23:44;100498.75;;;17.77;66.37
53647;BME280;39550;52.230;5.194;2022-09-09T08:26:19;100497.84;;;17.79;65.86
53647;BME280;39550;52.230;5.194;2022-09-09T08:28:46;100504.69;;;17.82;66.31
53647;BME280;39550;52.230;5.194;2022-09-09T08:31:17;100509.91;;;17.82;65.72
53647;BME280;39550;52.230;5.194;2022-09-09T08:33:43;100509.00;;;17.83;66.24
53647;BME280;39550;52.230;5.194;2022-09-09T08:36:16;100503.69;;;17.86;65.63
53647;BME280;39550;52.230;5.194;2022-09-09T08:38:42;100506.41;;;17.83;65.91
53647;BME280;39550;52.230;5.194;2022-09-09T08:41:12;100511.63;;;17.83;65.76
53647;BME280;39550;52.230;5.194;2022-09-09T08:43:43;100512.44;;;17.85;65.79
53647;BME280;39550;52.230;5.194;2022-09-09T08:46:21;100504.69;;;17.82;66.13
53647;BME280;39550;52.230;5.194;2022-09-09T08:48:59;100521.00;;;17.88;65.59
53647;BME280;39550;52.230;5.194;2022-09-09T08:51:29;100516.63;;;17.92;65.57
53647;BME280;39550;52.230;5.194;2022-09-09T08:53:56;100514.91;;;17.90;65.50
53647;BME280;39550;52.230;5.194;2022-09-09T08:56:24;100521.09;;;17.85;65.99
53647;BME280;39550;52.230;5.194;2022-09-09T08:58:53;100525.47;;;17.85;65.88
53647;BME280;39550;52.230;5.194;2022-09-09T09:04:19;100517.72;;;17.82;65.84
53647;BME280;39550;52.230;5.194;2022-09-09T09:12:27;100520.16;;;17.88;65.94
53647;BME280;39550;52.230;5.194;2022-09-09T09:14:54;100526.31;;;17.85;65.94
53647;BME280;39550;52.230;5.194;2022-09-09T09:17:23;100528.09;;;17.85;65.64
53647;BME280;39550;52.230;5.194;2022-09-09T09:19:50;100526.31;;;17.85;66.19
53647;BME280;39550;52.230;5.194;2022-09-09T09:22:39;100527.28;;;17.81;65.67
53647;BME280;39550;52.230;5.194;2022-09-09T09:25:22;100528.28;;;17.77;65.94
53647;BME280;39550;52.230;5.194;2022-09-09T09:30:25;100530.09;;;17.75;66.23
53647;BME280;39550;52.230;5.194;2022-09-09T09:35:23;100532.66;;;17.77;66.40
53647;BME280;39550;52.230;5.194;2022-09-09T09:37:49;100536.13;;;17.76;66.34
53647;BME280;39550;52.230;5.194;2022-09-09T09:40:20;100538.88;;;17.71;66.31
53647;BME280;39550;52.230;5.194;2022-09-09T09:42:54;100534.44;;;17.75;66.13
53647;BME280;39550;52.230;5.194;2022-09-09T09:45:33;100535.34;;;17.74;66.05
53647;BME280;39550;52.230;5.194;2022-09-09T09:48:04;100537.16;;;17.70;66.25
53647;BME280;39550;52.230;5.194;2022-09-09T09:50:30;100532.00;;;17.68;66.88
53647;BME280;39550;52.230;5.194;2022-09-09T09:53:02;100536.31;;;17.69;66.34
53647;BME280;39550;52.230;5.194;2022-09-09T09:55:30;100528.50;;;17.68;66.27
53647;BME280;39550;52.230;5.194;2022-09-09T09:58:04;100532.88;;;17.67;66.23
53647;BME280;39550;52.230;5.194;2022-09-09T10:00:31;100536.31;;;17.69;66.12
53647;BME280;39550;52.230;5.194;2022-09-09T10:02:59;100529.31;;;17.72;66.51
53647;BME280;39550;52.230;5.194;2022-09-09T10:05:27;100530.94;;;17.76;66.44
53647;BME280;39550;52.230;5.194;2022-09-09T10:16:29;100532.66;;;17.77;66.15
53647;BME280;39550;52.230;5.194;2022-09-09T10:23:57;100523.53;;;17.93;65.96
53647;BME280;39550;52.230;5.194;2022-09-09T10:26:35;100533.25;;;17.86;66.55
53647;BME280;39550;52.230;5.194;2022-09-09T10:37:06;100532.50;;;17.81;66.89
53647;BME280;39550;52.230;5.194;2022-09-09T10:39:38;100539.50;;;17.81;67.13
53647;BME280;39550;52.230;5.194;2022-09-09T10:42:14;100537.81;;;17.78;66.63
53647;BME280;39550;52.230;5.194;2022-09-09T10:45:08;100536.63;;;17.92;66.46
53647;BME280;39550;52.230;5.194;2022-09-09T10:55:50;100523.44;;;17.96;67.25
53647;BME280;39550;52.230;5.194;2022-09-09T10:58:32;100526.84;;;17.98;66.49
53647;BME280;39550;52.230;5.194;2022-09-09T11:01:06;100518.00;;;18.06;66.60
53647;BME280;39550;52.230;5.194;2022-09-09T11:03:35;100524.97;;;18.03;66.55
53647;BME280;39550;52.230;5.194;2022-09-09T11:06:09;100522.38;;;18.03;66.45
53647;BME280;39550;52.230;5.194;2022-09-09T11:08:38;100517.81;;;18.12;66.06
53647;BME280;39550;52.230;5.194;2022-09-09T11:11:21;100511.84;;;18.07;66.88
53647;BME280;39550;52.230;5.194;2022-09-09T11:21:55;100512.13;;;17.97;66.74
53647;BME280;39550;52.230;5.194;2022-09-09T11:24:31;100520.09;;;17.91;67.41
53647;BME280;39550;52.230;5.194;2022-09-09T11:27:08;100513.13;;;17.93;67.30
53647;BME280;39550;52.230;5.194;2022-09-09T11:33:07;100509.69;;;17.91;67.48
53647;BME280;39550;52.230;5.194;2022-09-09T11:38:47;100500.03;;;17.95;67.40
53647;BME280;39550;52.230;5.194;2022-09-09T11:41:14;100505.94;;;18.01;66.98
53647;BME280;39550;52.230;5.194;2022-09-09T11:43:50;100505.84;;;18.04;66.36
53647;BME280;39550;52.230;5.194;2022-09-09T11:46:19;100496.16;;;18.08;66.66
53647;BME280;39550;52.230;5.194;2022-09-09T11:48:58;100500.38;;;18.14;66.16
53647;BME280;39550;52.230;5.194;2022-09-09T11:53:59;100501.56;;;18.02;66.72
53647;BME280;39550;52.230;5.194;2022-09-09T11:56:43;100500.88;;;17.95;67.01
53647;BME280;39550;52.230;5.194;2022-09-09T12:01:53;100499.25;;;17.91;67.43
53647;BME280;39550;52.230;5.194;2022-09-09T12:09:46;100515.78;;;17.92;67.71
53647;BME280;39550;52.230;5.194;2022-09-09T12:19:41;100502.94;;;18.15;68.15
53647;BME280;39550;52.230;5.194;2022-09-09T12:22:09;100511.06;;;18.04;68.27
53647;BME280;39550;52.230;5.194;2022-09-09T12:24:54;100505.84;;;18.04;68.24
53647;BME280;39550;52.230;5.194;2022-09-09T12:27:38;100511.06;;;18.04;68.25
53647;BME280;39550;52.230;5.194;2022-09-09T12:30:12;100504.13;;;18.03;67.54
53647;BME280;39550;52.230;5.194;2022-09-09T12:32:39;100508.31;;;18.09;67.23
53647;BME280;39550;52.230;5.194;2022-09-09T12:35:13;100495.94;;;18.16;67.57
53647;BME280;39550;52.230;5.194;2022-09-09T12:37:42;100495.31;;;18.37;66.23
53647;BME280;39550;52.230;5.194;2022-09-09T12:40:32;100493.34;;;18.46;66.04
53647;BME280;39550;52.230;5.194;2022-09-09T12:43:00;100496.78;;;18.46;66.71
53647;BME280;39550;52.230;5.194;2022-09-09T12:45:29;100496.38;;;18.30;67.24
53647;BME280;39550;52.230;5.194;2022-09-09T12:47:59;100491.56;;;18.18;66.98
53647;BME280;39550;52.230;5.194;2022-09-09T12:50:29;100498.66;;;18.13;67.63
53647;BME280;39550;52.230;5.194;2022-09-09T12:52:57;100498.59;;;18.14;66.90
53647;BME280;39550;52.230;5.194;2022-09-09T12:55:36;100498.75;;;18.10;67.58
53647;BME280;39550;52.230;5.194;2022-09-09T12:58:02;100496.16;;;18.08;67.59
53647;BME280;39550;52.230;5.194;2022-09-09T13:00:33;100491.03;;;18.05;67.72
53647;BME280;39550;52.230;5.194;2022-09-09T13:03:01;100482.59;;;17.97;67.68
53647;BME280;39550;52.230;5.194;2022-09-09T13:05:38;100492.06;;;17.99;67.79
53647;BME280;39550;52.230;5.194;2022-09-09T13:08:09;100487.84;;;17.95;68.30
53647;BME280;39550;52.230;5.194;2022-09-09T13:10:48;100483.63;;;17.91;67.87
53647;BME280;39550;52.230;5.194;2022-09-09T13:13:19;100489.56;;;17.96;67.97
53647;BME280;39550;52.230;5.194;2022-09-09T13:15:50;100489.66;;;17.93;68.40
53647;BME280;39550;52.230;5.194;2022-09-09T13:18:19;100485.41;;;17.89;68.38
53647;BME280;39550;52.230;5.194;2022-09-09T13:20:47;100481.06;;;17.88;68.60
53647;BME280;39550;52.230;5.194;2022-09-09T13:23:14;100489.69;;;17.90;68.23
53647;BME280;39550;52.230;5.194;2022-09-09T13:25:40;100488.72;;;17.94;68.04
53647;BME280;39550;52.230;5.194;2022-09-09T13:28:20;100483.56;;;17.93;68.17
53647;BME280;39550;52.230;5.194;2022-09-09T13:30:56;100485.16;;;17.98;67.96
53647;BME280;39550;52.230;5.194;2022-09-09T13:33:29;100488.47;;;18.03;67.66
53647;BME280;39550;52.230;5.194;2022-09-09T13:36:04;100478.91;;;18.04;67.28
53647;BME280;39550;52.230;5.194;2022-09-09T13:38:54;100488.38;;;18.07;67.27
53647;BME280;39550;52.230;5.194;2022-09-09T13:41:22;100480.56;;;18.07;67.54
53647;BME280;39550;52.230;5.194;2022-09-09T13:43:52;100483.16;;;18.07;67.38
53647;BME280;39550;52.230;5.194;2022-09-09T13:46:35;100479.66;;;18.08;67.43
53647;BME280;39550;52.230;5.194;2022-09-09T13:51:37;100493.59;;;18.07;67.71
53647;BME280;39550;52.230;5.194;2022-09-09T13:54:09;100492.13;;;18.28;66.50
53647;BME280;39550;52.230;5.194;2022-09-09T13:56:36;100485.94;;;18.30;66.72
53647;BME280;39550;52.230;5.194;2022-09-09T13:59:03;100484.56;;;18.18;66.57
53647;BME280;39550;52.230;5.194;2022-09-09T14:01:29;100488.13;;;18.16;66.99
53647;BME280;39550;52.230;5.194;2022-09-09T14:03:55;100492.56;;;18.12;66.81
53647;BME280;39550;52.230;5.194;2022-09-09T14:06:20;100486.59;;;18.09;67.25
53647;BME280;39550;52.230;5.194;2022-09-09T14:08:50;100489.31;;;18.04;67.45
53647;BME280;39550;52.230;5.194;2022-09-09T14:11:17;100488.53;;;18.02;67.42
53647;BME280;39550;52.230;5.194;2022-09-09T14:13:42;100492.06;;;17.99;67.55
53647;BME280;39550;52.230;5.194;2022-09-09T14:16:08;100491.31;;;17.96;67.80
53647;BME280;39550;52.230;5.194;2022-09-09T14:18:33;100484.50;;;17.92;67.96
53647;BME280;39550;52.230;5.194;2022-09-09T14:20:59;100494.91;;;17.90;68.30
53647;BME280;39550;52.230;5.194;2022-09-09T14:23:24;100490.59;;;17.89;68.66
53647;BME280;39550;52.230;5.194;2022-09-09T14:25:51;100488.88;;;17.88;68.02
53647;BME280;39550;52.230;5.194;2022-09-09T14:28:16;100498.47;;;17.87;69.07
53647;BME280;39550;52.230;5.194;2022-09-09T14:30:43;100498.44;;;17.89;68.68
53647;BME280;39550;52.230;5.194;2022-09-09T14:33:11;100499.25;;;17.91;68.45
53647;BME280;39550;52.230;5.194;2022-09-09T14:35:36;100489.66;;;17.93;68.42
53647;BME280;39550;52.230;5.194;2022-09-09T14:38:03;100492.94;;;18.00;67.93
53647;BME280;39550;52.230;5.194;2022-09-09T14:40:29;100479.66;;;18.08;67.71
53647;BME280;39550;52.230;5.194;2022-09-09T14:42:54;100481.75;;;18.54;66.40
53647;BME280;39550;52.230;5.194;2022-09-09T14:45:22;100472.44;;;19.02;64.63
53647;BME280;39550;52.230;5.194;2022-09-09T14:47:49;100468.97;;;19.27;63.87
53647;BME280;39550;52.230;5.194;2022-09-09T14:50:14;100475.38;;;19.44;63.23
53647;BME280;39550;52.230;5.194;2022-09-09T14:52:39;100481.03;;;18.78;65.09
53647;BME280;39550;52.230;5.194;2022-09-09T14:55:05;100469.09;;;18.42;66.62
53647;BME280;39550;52.230;5.194;2022-09-09T14:57:32;100480.84;;;18.27;66.81
53647;BME280;39550;52.230;5.194;2022-09-09T14:59:57;100479.31;;;18.20;67.27
53647;BME280;39550;52.230;5.194;2022-09-09T15:02:22;100483.00;;;18.13;67.42
53647;BME280;39550;52.230;5.194;2022-09-09T15:04:48;100481.38;;;18.09;67.81
53647;BME280;39550;52.230;5.194;2022-09-09T15:07:15;100471.94;;;18.04;68.11
53647;BME280;39550;52.230;5.194;2022-09-09T15:09:41;100485.06;;;18.01;67.95
53647;BME280;39550;52.230;5.194;2022-09-09T15:12:07;100488.53;;;18.02;67.56